KCUB/CUB METAR and TAF weather

Enter ICAO airport designator
Station Type Date Time Source
KCUB METAR 2018/07/21 22:53 UTC NOAA

KCUB 212253Z AUTO 25010G15KT 10SM CLR 33/19 A2975 RMK AO2 SLP070 T03280189


Station Type Date Time Source
KCUB Decoded METAR 2018/07/21 22:53 UTC NOAA

OWENS DOWNTOWN AIRPORT, SC, United States (KCUB) 33-58N 081-00W 56M
Jul 21, 2018 - 06:53 PM EDT / 2018.07.21 2253 UTC
Wind: from the WSW (250 degrees) at 12 MPH (10 KT) gusting to 17 MPH (15 KT):0
Visibility: 10 mile(s):0
Sky conditions: clear
Temperature: 91.0 F (32.8 C)
Dew Point: 66.0 F (18.9 C)
Relative Humidity: 43%
Pressure (altimeter): 29.75 in. Hg (1007 hPa)
ob: KCUB 212253Z AUTO 25010G15KT 10SM CLR 33/19 A2975 RMK AO2 SLP070 T03280189
cycle: 23

Station Type Date Time Source
KCUB TAF 2018/07/21 21:42 UTC NOAA

TAF
AMD KCUB 212040Z 2121/2218 20009KT P6SM SCT050 BKN150
FM212300 21007KT P6SM VCTS BKN035CB BKN120
FM220800 VRB05KT P6SM SCT010 BKN060
FM221500 26007KT P6SM SCT250


Example: see airport list